createdAt,value
2022-08-09T00:01:43.064Z,26.01
2022-08-09T00:06:52.047Z,26.20
2022-08-09T00:12:03.254Z,25.94
2022-08-09T00:17:04.111Z,26.02
2022-08-09T00:22:04.431Z,25.61
2022-08-09T00:27:02.630Z,25.91
2022-08-09T00:32:02.733Z,25.47
2022-08-09T00:37:03.061Z,25.40
2022-08-09T00:44:13.011Z,25.30
2022-08-09T00:47:29.902Z,25.09
2022-08-09T00:52:35.185Z,25.14
2022-08-09T00:57:35.807Z,25.33
2022-08-09T01:02:35.216Z,25.07
2022-08-09T01:08:02.867Z,25.14
2022-08-09T01:13:58.655Z,24.76
2022-08-09T01:19:04.912Z,24.98
2022-08-09T01:24:55.347Z,24.97
2022-08-09T01:30:07.145Z,24.67
2022-08-09T01:35:28.382Z,24.80
2022-08-09T01:40:31.257Z,24.52
2022-08-09T01:45:31.006Z,24.68
2022-08-09T01:50:36.624Z,24.61
2022-08-09T01:55:42.554Z,24.45
2022-08-09T02:00:42.906Z,24.64
2022-08-09T02:06:03.527Z,24.41
2022-08-09T02:11:16.766Z,24.59
2022-08-09T02:16:16.789Z,24.34
2022-08-09T02:21:22.382Z,24.37
2022-08-09T02:26:27.410Z,24.38
2022-08-09T02:31:35.669Z,24.66
2022-08-09T02:36:38.517Z,24.27
2022-08-09T02:41:57.067Z,24.17
2022-08-09T02:46:58.159Z,24.17
2022-08-09T02:52:22.201Z,24.26
2022-08-09T02:57:23.237Z,24.22
2022-08-09T03:02:24.007Z,24.47
2022-08-09T03:07:24.334Z,24.30
2022-08-09T03:12:25.051Z,24.14
2022-08-09T03:17:30.477Z,23.72
2022-08-09T03:22:31.132Z,23.84
2022-08-09T03:27:29.927Z,23.73
2022-08-09T03:32:50.499Z,24.04
2022-08-09T03:37:55.857Z,23.97
2022-08-09T03:42:57.717Z,23.86
2022-08-09T03:47:56.648Z,23.82
2022-08-09T03:53:00.567Z,23.70
2022-08-09T03:58:14.920Z,23.75
2022-08-09T04:03:24.514Z,23.96
2022-08-09T04:08:35.854Z,23.86
2022-08-09T04:14:36.600Z,23.75
2022-08-09T04:19:11.180Z,23.89
2022-08-09T04:24:30.172Z,23.94
2022-08-09T04:29:32.152Z,23.84
2022-08-09T04:34:33.685Z,23.82
2022-08-09T04:39:33.399Z,24.18
2022-08-09T04:44:49.358Z,24.24
2022-08-09T04:49:54.604Z,24.12
2022-08-09T04:54:55.175Z,24.16
2022-08-09T04:59:55.502Z,24.20
2022-08-09T05:04:55.641Z,24.66
2022-08-09T05:09:54.235Z,24.44
2022-08-09T05:14:54.454Z,24.61
2022-08-09T05:19:56.872Z,24.58
2022-08-09T05:24:57.381Z,24.66
2022-08-09T05:30:05.288Z,24.69
2022-08-09T05:35:05.962Z,24.78
2022-08-09T05:40:07.967Z,24.88
2022-08-09T05:45:07.391Z,24.97
2022-08-09T05:50:32.158Z,24.96
2022-08-09T05:55:29.310Z,25.09
2022-08-09T06:00:32.915Z,25.44
2022-08-09T06:05:56.969Z,25.48
2022-08-09T06:10:53.183Z,25.41
2022-08-09T06:15:53.013Z,25.76
2022-08-09T06:20:57.299Z,25.70
2022-08-09T06:25:56.760Z,25.70
2022-08-09T06:30:55.680Z,25.89
2022-08-09T06:35:57.313Z,26.05
2022-08-09T06:40:57.222Z,26.19
2022-08-09T06:46:07.003Z,26.03
2022-08-09T06:51:11.108Z,25.94
2022-08-09T06:56:12.102Z,26.43
2022-08-09T07:01:15.637Z,26.57
2022-08-09T07:06:17.905Z,26.65
2022-08-09T07:11:23.791Z,26.78
2022-08-09T07:16:41.951Z,26.88
2022-08-09T07:21:55.910Z,26.79
2022-08-09T07:26:59.414Z,26.97
2022-08-09T07:32:01.421Z,27.37
2022-08-09T07:37:02.733Z,27.53
2022-08-09T07:42:03.312Z,27.47
2022-08-09T07:47:04.167Z,27.73
2022-08-09T07:52:17.247Z,27.86
2022-08-09T07:57:18.457Z,27.39
2022-08-09T08:02:24.201Z,27.94
2022-08-09T08:08:43.837Z,28.21
2022-08-09T08:12:47.202Z,28.18
2022-08-09T08:17:53.275Z,28.63
2022-08-09T08:22:58.761Z,28.83
2022-08-09T08:28:32.727Z,28.94
2022-08-09T08:33:40.664Z,28.88
2022-08-09T08:38:56.882Z,29.41
2022-08-09T08:44:02.494Z,29.35
2022-08-09T08:49:03.164Z,29.50
2022-08-09T08:54:10.286Z,29.53
2022-08-09T08:59:20.786Z,29.45
2022-08-09T09:04:37.752Z,30.03
2022-08-09T09:10:01.740Z,30.05
2022-08-09T09:15:02.384Z,29.95
2022-08-09T09:20:01.910Z,30.40
2022-08-09T09:26:01.461Z,30.66
2022-08-09T09:30:37.996Z,30.48
2022-08-09T09:36:20.029Z,30.59
2022-08-09T09:41:49.875Z,31.11
2022-08-09T09:47:07.750Z,30.89
2022-08-09T09:52:33.412Z,30.64
2022-08-09T09:58:04.103Z,31.40
2022-08-09T10:02:57.852Z,31.61
2022-08-09T10:08:27.585Z,31.66
2022-08-09T10:13:45.088Z,32.15
2022-08-09T10:18:54.350Z,32.60
2022-08-09T10:23:56.953Z,32.66
2022-08-09T10:29:21.278Z,32.62
2022-08-09T10:34:33.603Z,32.93
2022-08-09T10:39:48.949Z,33.63
2022-08-09T10:44:55.286Z,33.61
2022-08-09T10:50:26.997Z,33.68
2022-08-09T10:55:35.811Z,33.01
2022-08-09T11:03:02.837Z,33.23
2022-08-09T11:06:23.582Z,33.58
2022-08-09T11:11:24.650Z,33.90
2022-08-09T11:16:37.400Z,34.37
2022-08-09T11:22:05.525Z,34.20
2022-08-09T11:28:04.883Z,34.16
2022-08-09T11:33:17.607Z,34.46
2022-08-09T11:38:28.621Z,34.75
2022-08-09T11:43:49.063Z,34.64
2022-08-09T11:48:50.817Z,34.05
2022-08-09T11:53:58.485Z,34.11
2022-08-09T11:59:00.735Z,34.60
2022-08-09T12:04:23.661Z,34.46
2022-08-09T12:09:33.504Z,34.76
2022-08-09T12:14:36.946Z,35.06
2022-08-09T12:19:40.162Z,34.60
2022-08-09T12:24:39.893Z,34.65
2022-08-09T12:29:53.980Z,34.80
2022-08-09T12:35:10.911Z,34.63
2022-08-09T12:40:18.940Z,35.57
2022-08-09T12:45:33.485Z,35.46
2022-08-09T12:50:36.100Z,35.97
2022-08-09T12:56:15.442Z,35.70
2022-08-09T13:00:56.590Z,35.42
2022-08-09T13:06:14.387Z,35.81
2022-08-09T13:11:25.924Z,36.44
2022-08-09T13:16:41.760Z,37.81
2022-08-09T13:22:37.482Z,37.39
2022-08-09T13:27:04.731Z,35.98
2022-08-09T13:32:17.189Z,35.81
2022-08-09T13:37:50.680Z,35.08
2022-08-09T13:42:38.660Z,36.02
2022-08-09T13:47:44.213Z,36.84
2022-08-09T13:52:49.129Z,37.67
2022-08-09T13:57:56.161Z,38.73
2022-08-09T14:03:04.113Z,38.71
2022-08-09T14:08:19.380Z,39.44
2022-08-09T14:14:15.029Z,39.00
2022-08-09T14:18:43.172Z,37.98
2022-08-09T14:23:55.337Z,38.53
2022-08-09T14:28:56.291Z,37.94
2022-08-09T14:33:54.775Z,37.46
2022-08-09T14:38:53.187Z,36.99
2022-08-09T14:43:53.611Z,36.29
2022-08-09T14:48:52.371Z,36.44
2022-08-09T14:53:52.349Z,35.84
2022-08-09T14:58:56.130Z,37.06
2022-08-09T15:03:55.481Z,37.14
2022-08-09T15:08:56.493Z,36.77
2022-08-09T15:14:01.612Z,36.76
2022-08-09T15:19:15.981Z,36.39
2022-08-09T15:24:23.395Z,36.57
2022-08-09T15:30:57.010Z,35.70
2022-08-09T15:34:52.471Z,35.48
2022-08-09T15:39:53.756Z,35.20
2022-08-09T15:44:53.406Z,34.73
2022-08-09T15:50:04.130Z,34.92
2022-08-09T15:55:10.493Z,35.74
2022-08-09T16:00:14.691Z,37.51
2022-08-09T16:05:17.006Z,37.66
2022-08-09T16:10:17.298Z,38.09
2022-08-09T16:16:10.585Z,38.33
2022-08-09T16:21:05.619Z,38.12
2022-08-09T16:26:06.102Z,37.97
2022-08-09T16:32:10.428Z,37.58
2022-08-09T16:36:50.992Z,37.55
2022-08-09T16:42:03.638Z,36.32
2022-08-09T16:48:39.114Z,35.51
2022-08-09T16:52:32.325Z,34.77
2022-08-09T16:58:07.977Z,34.21
2022-08-09T17:02:51.788Z,33.78
2022-08-09T17:08:44.322Z,33.23
2022-08-09T17:13:22.714Z,32.79
2022-08-09T17:18:27.051Z,32.71
2022-08-09T17:24:20.708Z,32.63
2022-08-09T17:28:49.782Z,32.58
2022-08-09T17:33:53.411Z,32.60
2022-08-09T17:38:57.553Z,32.28
2022-08-09T17:44:47.105Z,32.00
2022-08-09T17:49:33.065Z,31.86
2022-08-09T17:54:42.721Z,31.35
2022-08-09T17:59:43.778Z,31.00
2022-08-09T18:05:13.017Z,30.66
2022-08-09T18:10:11.835Z,30.54
2022-08-09T18:15:11.969Z,30.30
2022-08-09T18:20:56.207Z,30.33
2022-08-09T18:25:45.513Z,30.69
2022-08-09T18:30:51.687Z,30.90
2022-08-09T18:35:59.296Z,30.56
2022-08-09T18:41:00.171Z,30.73
2022-08-09T18:46:49.611Z,31.11
2022-08-09T18:51:19.037Z,30.95
2022-08-09T18:56:41.433Z,30.68
2022-08-09T19:01:46.002Z,30.37
2022-08-09T19:06:48.840Z,29.93
2022-08-09T19:11:52.866Z,29.40
2022-08-09T19:16:52.065Z,28.79
2022-08-09T19:22:04.637Z,29.35
2022-08-09T19:27:07.690Z,29.67
2022-08-09T19:32:12.096Z,30.09
2022-08-09T19:37:17.198Z,30.28
2022-08-09T19:42:28.380Z,30.21
2022-08-09T19:47:30.460Z,30.34
2022-08-09T19:52:51.414Z,30.09
2022-08-09T19:58:42.965Z,29.58
2022-08-09T20:04:10.150Z,29.49
2022-08-09T20:09:44.602Z,28.91
2022-08-09T20:14:50.292Z,28.90
2022-08-09T20:19:54.208Z,29.00
2022-08-09T20:24:54.626Z,28.98
2022-08-09T20:29:57.646Z,28.74
2022-08-09T20:34:55.345Z,28.56
2022-08-09T20:40:14.705Z,28.62
2022-08-09T20:45:59.418Z,28.43
2022-08-09T20:50:47.066Z,28.50
2022-08-09T20:56:02.187Z,28.44
2022-08-09T21:01:33.186Z,28.28
2022-08-09T21:06:25.925Z,28.15
2022-08-09T21:16:48.257Z,28.07
2022-08-09T21:21:56.515Z,28.07
2022-08-09T21:26:57.139Z,27.93
2022-08-09T21:31:56.385Z,27.69
2022-08-09T21:36:56.523Z,27.83
2022-08-09T21:42:03.855Z,27.49
2022-08-09T21:47:17.556Z,27.98
2022-08-09T21:52:20.488Z,27.92
2022-08-09T21:57:37.236Z,27.60
2022-08-09T22:02:40.292Z,27.43
2022-08-09T22:07:52.045Z,27.57
2022-08-09T22:12:53.623Z,27.12
2022-08-09T22:17:52.498Z,26.54
2022-08-09T22:22:51.634Z,26.11
2022-08-09T22:27:49.818Z,25.92
2022-08-09T22:32:50.549Z,25.84
2022-08-09T22:37:48.406Z,25.67
2022-08-09T22:43:16.131Z,25.81
2022-08-09T22:48:35.306Z,25.17
2022-08-09T22:54:02.363Z,25.10
2022-08-09T22:59:55.532Z,24.86
2022-08-09T23:04:25.764Z,25.05
2022-08-09T23:09:24.530Z,25.05
2022-08-09T23:14:36.261Z,24.87
2022-08-09T23:20:06.522Z,24.74
2022-08-09T23:25:00.722Z,24.91
2022-08-09T23:30:00.323Z,25.07
2022-08-09T23:34:58.255Z,25.21
2022-08-09T23:39:57.051Z,25.08
2022-08-09T23:45:07.318Z,25.04
2022-08-09T23:50:07.369Z,25.12
2022-08-09T23:55:08.190Z,25.11
